Time;durP1;ratioP1;P1;durP2;ratioP2;P2;SDS_P1;SDS_P2;PMS_P1;PMS_P2;Temp;Humidity;BMP_temperature;BMP_pressure;BME280_temperature;BME280_humidity;BME280_pressure;Samples;Min_cycle;Max_cycle;Signal;HPM_P1;HPM_P2
2023/08/04 00:00:56;;;;;;;2.67;1.10;;;17.70;99.90;;;;;;5043148;28;20244;-69
2023/08/04 00:03:22;;;;;;;2.47;0.90;;;17.70;99.90;;;;;;5043202;28;20195;-68
2023/08/04 00:05:47;;;;;;;1.83;1.10;;;17.80;99.90;;;;;;5044713;28;20182;-68
2023/08/04 00:08:13;;;;;;;3.93;0.80;;;17.80;99.90;;;;;;5044682;28;20675;-68
2023/08/04 00:10:39;;;;;;;1.40;0.90;;;17.80;99.90;;;;;;5042579;28;20210;-68
2023/08/04 00:13:04;;;;;;;2.37;1.20;;;17.70;99.90;;;;;;5045095;28;20159;-69
2023/08/04 00:15:30;;;;;;;2.07;1.00;;;17.60;99.90;;;;;;5043178;28;20174;-69
2023/08/04 00:17:58;;;;;;;1.63;1.27;;;17.70;99.90;;;;;;5045627;28;20162;-69
2023/08/04 00:20:24;;;;;;;3.07;1.00;;;17.70;99.90;;;;;;5042734;28;20586;-68
2023/08/04 00:22:49;;;;;;;2.60;1.10;;;17.70;99.90;;;;;;5046560;28;20419;-69
2023/08/04 00:25:16;;;;;;;1.83;1.00;;;17.80;99.90;;;;;;5043050;28;20176;-69
2023/08/04 00:27:42;;;;;;;2.90;1.10;;;17.80;99.90;;;;;;5042598;28;20178;-69
2023/08/04 00:30:10;;;;;;;3.03;0.80;;;17.70;99.90;;;;;;5044012;28;20919;-69
2023/08/04 00:32:36;;;;;;;2.93;1.60;;;17.70;99.90;;;;;;5044273;28;20190;-69
2023/08/04 00:35:03;;;;;;;3.13;1.07;;;17.60;99.90;;;;;;5043137;28;20424;-69
2023/08/04 00:37:29;;;;;;;1.53;1.10;;;17.60;99.90;;;;;;5042357;28;20170;-69
2023/08/04 00:39:54;;;;;;;1.90;1.10;;;17.50;99.90;;;;;;5043689;28;20401;-69
2023/08/04 00:42:20;;;;;;;2.17;0.90;;;17.40;99.90;;;;;;5045080;28;20169;-70
2023/08/04 00:44:45;;;;;;;2.83;1.53;;;17.40;99.90;;;;;;5043549;28;20239;-69
2023/08/04 00:47:11;;;;;;;1.43;0.93;;;17.50;99.90;;;;;;5043328;28;20512;-69
2023/08/04 00:49:37;;;;;;;1.27;0.83;;;17.50;99.90;;;;;;5042559;28;20174;-70
2023/08/04 00:52:03;;;;;;;1.33;1.00;;;17.50;99.90;;;;;;5046019;28;20198;-69
2023/08/04 00:54:28;;;;;;;1.57;1.03;;;17.40;99.90;;;;;;5042258;28;20668;-69
2023/08/04 00:56:55;;;;;;;3.00;1.20;;;17.30;99.90;;;;;;5042814;28;20398;-69
2023/08/04 00:59:21;;;;;;;1.63;0.90;;;17.30;99.90;;;;;;5044915;28;20186;-69
2023/08/04 01:01:48;;;;;;;1.57;1.00;;;17.30;99.90;;;;;;5044143;28;20441;-69
2023/08/04 01:04:15;;;;;;;1.33;1.20;;;17.40;99.90;;;;;;5043800;28;20171;-69
2023/08/04 01:07:09;;;;;;;2.50;1.40;;;17.30;99.90;;;;;;5044127;28;20493;-69
2023/08/04 01:09:41;;;;;;;1.83;1.00;;;17.30;99.90;;;;;;5041289;28;20496;-69
2023/08/04 01:12:35;;;;;;;2.33;1.10;;;17.30;99.90;;;;;;5041917;28;20464;-69
2023/08/04 01:15:02;;;;;;;2.70;1.13;;;17.30;99.90;;;;;;5044450;28;20394;-69
2023/08/04 01:17:30;;;;;;;1.70;1.00;;;17.20;99.90;;;;;;5040559;28;20492;-69
2023/08/04 01:19:56;;;;;;;2.30;1.20;;;16.70;99.90;;;;;;5044546;28;20402;-69
2023/08/04 01:22:23;;;;;;;1.70;0.90;;;16.70;99.90;;;;;;5039125;28;20489;-68
2023/08/04 01:24:50;;;;;;;2.60;0.97;;;16.90;99.90;;;;;;5040460;28;20869;-70
2023/08/04 01:27:37;;;;;;;2.57;1.10;;;17.10;99.90;;;;;;5044496;28;20400;-69
2023/08/04 01:30:05;;;;;;;1.50;0.90;;;17.10;99.90;;;;;;5041934;28;20857;-69
2023/08/04 01:32:32;;;;;;;1.47;0.93;;;17.10;99.90;;;;;;5044466;28;20405;-68
2023/08/04 01:34:58;;;;;;;2.70;1.30;;;17.10;99.90;;;;;;5041470;28;20406;-69
2023/08/04 01:37:24;;;;;;;3.17;1.40;;;17.20;99.90;;;;;;5046709;28;20449;-68
2023/08/04 01:39:50;;;;;;;4.00;1.70;;;17.00;99.90;;;;;;5048678;28;20406;-69
2023/08/04 01:42:15;;;;;;;3.23;1.33;;;17.00;99.90;;;;;;5051583;28;20193;-69
2023/08/04 01:44:41;;;;;;;4.60;1.07;;;17.10;99.90;;;;;;5050654;28;20984;-69
2023/08/04 01:47:07;;;;;;;4.10;0.90;;;17.10;99.90;;;;;;5050516;28;20163;-69
2023/08/04 01:49:34;;;;;;;3.03;1.20;;;17.10;99.90;;;;;;5048675;28;20545;-69
2023/08/04 01:51:59;;;;;;;2.57;0.93;;;17.10;99.90;;;;;;5052793;28;20456;-69
2023/08/04 01:54:25;;;;;;;1.97;1.00;;;17.00;99.90;;;;;;5047861;28;20414;-69
2023/08/04 01:56:51;;;;;;;1.67;1.00;;;17.10;99.90;;;;;;5047050;28;20168;-69
2023/08/04 01:59:16;;;;;;;2.80;0.97;;;17.10;99.90;;;;;;5050316;28;20174;-69
2023/08/04 02:01:42;;;;;;;2.73;0.90;;;17.10;99.90;;;;;;5049630;28;20190;-69
2023/08/04 02:04:07;;;;;;;1.73;0.90;;;17.10;99.90;;;;;;5049876;28;20167;-69
2023/08/04 02:06:33;;;;;;;2.70;1.23;;;17.20;99.90;;;;;;5050808;28;20170;-69
2023/08/04 02:08:59;;;;;;;1.73;0.80;;;17.30;99.90;;;;;;5049377;28;20552;-69
2023/08/04 02:11:24;;;;;;;2.30;1.47;;;17.40;99.90;;;;;;5048577;28;20213;-69
2023/08/04 02:13:50;;;;;;;4.50;1.10;;;17.50;99.90;;;;;;5048381;28;20650;-69
2023/08/04 02:16:15;;;;;;;3.47;0.90;;;17.50;99.90;;;;;;5049858;28;20172;-69
2023/08/04 02:18:41;;;;;;;1.10;0.70;;;17.50;99.90;;;;;;5050020;28;20169;-69
2023/08/04 02:21:07;;;;;;;1.67;1.23;;;17.50;99.90;;;;;;5049400;28;20240;-69
2023/08/04 02:23:32;;;;;;;2.50;1.20;;;17.50;99.90;;;;;;5048989;28;20159;-69
2023/08/04 02:25:58;;;;;;;1.67;0.80;;;17.50;99.90;;;;;;5048620;28;20795;-69
2023/08/04 02:28:24;;;;;;;2.27;1.00;;;17.60;99.90;;;;;;5050858;28;20158;-69
2023/08/04 02:30:49;;;;;;;1.87;1.00;;;17.70;99.90;;;;;;5047727;28;20195;-69
2023/08/04 02:33:15;;;;;;;2.03;1.03;;;17.80;99.90;;;;;;5048928;28;20174;-69
2023/08/04 02:35:40;;;;;;;4.30;0.90;;;17.70;99.90;;;;;;5048440;28;20160;-69
2023/08/04 02:38:06;;;;;;;2.60;1.43;;;17.80;99.90;;;;;;5050007;28;20177;-69
2023/08/04 02:40:36;;;;;;;2.70;1.00;;;17.80;99.90;;;;;;5048916;28;20182;-69
2023/08/04 02:43:01;;;;;;;3.40;0.97;;;17.80;99.90;;;;;;5048029;28;20174;-69
2023/08/04 02:45:27;;;;;;;1.73;1.20;;;17.70;99.90;;;;;;5050377;28;20401;-68
2023/08/04 02:47:52;;;;;;;1.40;0.70;;;17.80;99.90;;;;;;5048437;28;20198;-69
2023/08/04 02:50:18;;;;;;;3.13;0.80;;;17.80;99.90;;;;;;5045703;28;20552;-69
2023/08/04 02:52:43;;;;;;;1.90;1.13;;;17.90;99.90;;;;;;5047982;28;20653;-68
2023/08/04 02:55:10;;;;;;;3.10;0.90;;;17.90;99.90;;;;;;5043276;28;20174;-67
2023/08/04 02:57:36;;;;;;;1.40;1.10;;;17.80;99.90;;;;;;5046225;28;20632;-69
2023/08/04 03:00:02;;;;;;;1.90;1.20;;;17.80;99.90;;;;;;5045599;28;20421;-69
2023/08/04 03:02:28;;;;;;;1.97;0.90;;;18.00;99.90;;;;;;5044106;28;20207;-69
2023/08/04 03:04:53;;;;;;;4.33;1.20;;;18.10;99.90;;;;;;5047206;28;20469;-69
2023/08/04 03:07:19;;;;;;;5.90;1.17;;;18.20;99.90;;;;;;5044055;28;20186;-69
2023/08/04 03:09:45;;;;;;;1.50;1.03;;;18.20;99.90;;;;;;5047253;28;20163;-69
2023/08/04 03:12:10;;;;;;;1.20;1.00;;;18.00;99.90;;;;;;5044632;28;20294;-69
2023/08/04 03:14:36;;;;;;;2.07;1.27;;;18.00;99.90;;;;;;5044320;28;20163;-69
2023/08/04 03:17:01;;;;;;;2.50;1.30;;;17.90;99.90;;;;;;5044007;28;20167;-69
2023/08/04 03:19:27;;;;;;;1.90;0.90;;;18.00;99.90;;;;;;5046202;28;20171;-69
2023/08/04 03:21:52;;;;;;;1.40;0.90;;;18.00;99.90;;;;;;5048825;28;20680;-69
2023/08/04 03:24:18;;;;;;;1.30;1.00;;;18.10;99.90;;;;;;5042159;28;20697;-68
2023/08/04 03:26:43;;;;;;;1.83;0.87;;;18.10;99.90;;;;;;5044219;28;20222;-68
2023/08/04 03:29:09;;;;;;;2.60;0.90;;;18.00;99.90;;;;;;5043105;28;20679;-69
2023/08/04 03:31:35;;;;;;;2.03;0.83;;;18.10;99.90;;;;;;5046385;28;20555;-68
2023/08/04 03:34:00;;;;;;;2.60;1.43;;;18.10;99.90;;;;;;5043207;28;20556;-69
2023/08/04 03:36:26;;;;;;;2.00;0.80;;;18.20;99.90;;;;;;5044729;28;20175;-68
2023/08/04 03:38:52;;;;;;;1.80;0.90;;;18.30;99.90;;;;;;5043485;28;20174;-69
2023/08/04 03:41:17;;;;;;;1.20;0.60;;;18.30;99.90;;;;;;5046257;28;20190;-68
2023/08/04 03:43:43;;;;;;;3.53;1.10;;;18.40;99.90;;;;;;5045727;28;20171;-68
2023/08/04 03:46:08;;;;;;;1.57;0.83;;;18.40;99.90;;;;;;5045726;28;20181;-70
2023/08/04 03:48:34;;;;;;;1.40;0.90;;;18.50;99.90;;;;;;5043435;28;20171;-68
2023/08/04 03:50:59;;;;;;;4.73;1.07;;;18.50;99.90;;;;;;5044647;28;20214;-69
2023/08/04 03:53:25;;;;;;;1.70;0.80;;;18.40;99.90;;;;;;5045715;28;20163;-69
2023/08/04 03:55:50;;;;;;;1.10;0.90;;;18.40;99.90;;;;;;5043574;28;20175;-69
2023/08/04 03:58:16;;;;;;;2.03;1.37;;;17.90;99.90;;;;;;5045122;28;20189;-69
2023/08/04 04:00:41;;;;;;;2.40;1.43;;;17.50;99.90;;;;;;5044429;28;20199;-68
2023/08/04 04:03:07;;;;;;;1.13;1.03;;;17.50;99.90;;;;;;5042927;28;20172;-69
2023/08/04 04:05:32;;;;;;;2.00;1.27;;;17.60;99.90;;;;;;5045324;28;20169;-69
2023/08/04 04:07:58;;;;;;;2.37;0.93;;;17.70;99.90;;;;;;5043535;28;20171;-69
2023/08/04 04:10:23;;;;;;;2.87;1.37;;;17.90;99.90;;;;;;5045379;28;20202;-68
2023/08/04 04:12:49;;;;;;;1.80;1.27;;;18.10;99.90;;;;;;5043209;28;20170;-68
2023/08/04 04:15:15;;;;;;;2.43;1.10;;;18.20;99.90;;;;;;5046580;28;20166;-69
2023/08/04 04:17:40;;;;;;;4.00;0.90;;;18.30;99.90;;;;;;5042640;28;20167;-69
2023/08/04 04:20:06;;;;;;;2.00;1.10;;;18.30;99.90;;;;;;5045268;28;20257;-69
2023/08/04 04:22:33;;;;;;;2.10;1.00;;;18.40;99.90;;;;;;5045480;28;20205;-69
2023/08/04 04:25:00;;;;;;;1.53;0.97;;;18.50;99.90;;;;;;5041385;28;20468;-68
2023/08/04 04:27:25;;;;;;;1.63;1.17;;;18.50;99.90;;;;;;5045267;28;20405;-68
2023/08/04 04:29:51;;;;;;;2.80;0.90;;;18.60;99.90;;;;;;5042822;28;20428;-71
2023/08/04 04:32:16;;;;;;;2.10;1.43;;;18.40;99.90;;;;;;5042929;28;20599;-68
2023/08/04 04:34:42;;;;;;;2.37;1.30;;;18.40;99.90;;;;;;5044441;28;20225;-69
2023/08/04 04:37:07;;;;;;;3.13;0.90;;;18.30;99.90;;;;;;5044491;28;20238;-69
2023/08/04 04:39:33;;;;;;;1.00;0.80;;;18.30;99.90;;;;;;5044042;28;20159;-69
2023/08/04 04:41:58;;;;;;;1.80;1.00;;;18.30;99.90;;;;;;5042338;28;20194;-68
2023/08/04 04:44:24;;;;;;;1.83;1.20;;;18.30;99.90;;;;;;5045988;28;20209;-69
2023/08/04 04:46:50;;;;;;;2.00;0.83;;;18.30;99.90;;;;;;5043410;28;20178;-69
2023/08/04 04:49:16;;;;;;;3.20;1.13;;;18.40;99.90;;;;;;5045208;28;20178;-69
2023/08/04 04:51:42;;;;;;;2.03;1.00;;;18.50;99.90;;;;;;5044638;28;20189;-68
2023/08/04 04:54:08;;;;;;;2.07;0.90;;;18.70;99.90;;;;;;5042194;28;20758;-69
2023/08/04 04:56:33;;;;;;;3.37;1.33;;;18.50;99.90;;;;;;5044497;28;20645;-69
2023/08/04 04:58:59;;;;;;;2.57;1.47;;;18.30;99.90;;;;;;5041849;28;20215;-68
2023/08/04 05:01:24;;;;;;;3.80;1.17;;;18.20;99.90;;;;;;5043672;28;20195;-68
2023/08/04 05:03:50;;;;;;;1.67;1.00;;;18.20;99.90;;;;;;5042495;28;20171;-69
2023/08/04 05:06:15;;;;;;;1.73;0.87;;;18.30;99.90;;;;;;5041833;28;20282;-69
2023/08/04 05:08:41;;;;;;;2.67;1.37;;;18.50;99.90;;;;;;5043903;28;20611;-69
2023/08/04 05:11:07;;;;;;;3.20;1.00;;;18.60;99.90;;;;;;5043177;28;20271;-69
2023/08/04 05:13:32;;;;;;;2.47;1.00;;;18.70;99.90;;;;;;5041221;28;20254;-69
2023/08/04 05:15:58;;;;;;;3.00;1.47;;;18.80;99.90;;;;;;5038839;28;20166;-68
2023/08/04 05:18:24;;;;;;;2.17;1.43;;;18.80;99.90;;;;;;5042978;28;20179;-68
2023/08/04 05:20:50;;;;;;;1.80;1.07;;;18.90;99.90;;;;;;5044757;28;20190;-69
2023/08/04 05:23:16;;;;;;;2.67;1.50;;;18.90;99.90;;;;;;5045998;28;20424;-69
2023/08/04 05:25:42;;;;;;;2.07;1.50;;;18.90;99.90;;;;;;5044180;28;20174;-68
2023/08/04 05:28:27;;;;;;;3.23;1.33;;;18.90;99.90;;;;;;5041577;28;20451;-70
2023/08/04 05:30:55;;;;;;;2.23;1.10;;;19.10;99.90;;;;;;5042168;28;20672;-69
2023/08/04 05:33:21;;;;;;;3.53;1.50;;;19.20;99.90;;;;;;5042118;28;20401;-69
2023/08/04 05:35:47;;;;;;;2.70;1.13;;;19.30;99.90;;;;;;5044258;28;20775;-69
2023/08/04 05:38:13;;;;;;;2.40;1.30;;;19.40;99.90;;;;;;5043737;28;20195;-69
2023/08/04 05:40:40;;;;;;;1.73;1.20;;;19.60;99.90;;;;;;5043313;28;20193;-69
2023/08/04 05:43:06;;;;;;;3.70;1.40;;;19.50;99.90;;;;;;5041356;28;20166;-69
2023/08/04 05:45:35;;;;;;;3.03;1.30;;;19.60;99.90;;;;;;5040354;28;20907;-69
2023/08/04 05:48:01;;;;;;;1.40;1.10;;;19.70;99.90;;;;;;5042029;28;20182;-69
2023/08/04 05:50:27;;;;;;;2.30;1.10;;;19.70;99.90;;;;;;5041945;28;20473;-69
2023/08/04 05:52:53;;;;;;;2.13;1.10;;;19.50;99.90;;;;;;5044394;28;20532;-69
2023/08/04 05:55:20;;;;;;;3.10;1.10;;;19.70;99.90;;;;;;5043398;28;20581;-69
2023/08/04 05:57:46;;;;;;;1.50;0.97;;;19.70;99.90;;;;;;5043413;28;20229;-69
2023/08/04 06:00:12;;;;;;;1.83;0.90;;;19.50;99.90;;;;;;5044119;28;20945;-68
2023/08/04 06:02:37;;;;;;;1.63;0.90;;;19.50;99.90;;;;;;5041243;28;20163;-69
2023/08/04 06:05:03;;;;;;;1.43;1.00;;;19.60;99.90;;;;;;5041968;28;20410;-69
2023/08/04 06:07:29;;;;;;;1.30;0.90;;;19.50;99.90;;;;;;5040943;28;20405;-69
2023/08/04 06:09:54;;;;;;;2.73;1.20;;;19.60;99.90;;;;;;5041125;28;20182;-69
2023/08/04 06:12:20;;;;;;;3.00;1.33;;;19.70;99.90;;;;;;5042711;28;20568;-68
2023/08/04 06:14:46;;;;;;;1.87;1.00;;;19.70;99.90;;;;;;5042781;28;20175;-69
2023/08/04 06:17:12;;;;;;;1.53;1.00;;;19.60;99.90;;;;;;5042740;28;20159;-68
2023/08/04 06:19:43;;;;;;;2.73;0.83;;;19.80;99.90;;;;;;5041611;28;20401;-68
2023/08/04 06:22:09;;;;;;;2.27;0.90;;;20.10;99.90;;;;;;5042607;28;20947;-68
2023/08/04 06:24:34;;;;;;;1.20;1.07;;;20.30;99.90;;;;;;5045356;28;20406;-69
2023/08/04 06:27:00;;;;;;;2.10;1.17;;;20.30;99.90;;;;;;5047854;28;20502;-69
2023/08/04 06:29:25;;;;;;;1.40;0.87;;;20.20;99.90;;;;;;5045242;28;20201;-69
2023/08/04 06:31:51;;;;;;;3.30;1.27;;;20.20;99.90;;;;;;5045110;28;20242;-69
2023/08/04 06:34:17;;;;;;;0.93;0.80;;;20.30;99.90;;;;;;5044215;28;20171;-69
2023/08/04 06:36:46;;;;;;;2.80;1.20;;;20.30;99.90;;;;;;5046654;28;20241;-69
2023/08/04 06:39:12;;;;;;;1.90;1.10;;;20.50;99.90;;;;;;5046124;28;20245;-69
2023/08/04 06:41:37;;;;;;;3.20;1.00;;;20.30;99.90;;;;;;5044603;28;20461;-69
2023/08/04 06:44:03;;;;;;;4.50;2.40;;;20.10;99.90;;;;;;5045373;28;20162;-69
2023/08/04 06:46:29;;;;;;;5.10;2.20;;;20.40;99.90;;;;;;5045726;28;20171;-68
2023/08/04 06:48:54;;;;;;;4.07;1.90;;;20.20;99.90;;;;;;5046807;28;20223;-69
2023/08/04 06:51:20;;;;;;;4.30;1.63;;;19.80;99.90;;;;;;5047740;28;20199;-68
2023/08/04 06:53:45;;;;;;;4.20;2.03;;;19.50;99.90;;;;;;5043721;28;20163;-69
2023/08/04 06:56:11;;;;;;;4.00;1.90;;;19.60;99.90;;;;;;5045958;28;20174;-70
2023/08/04 06:58:36;;;;;;;2.70;1.67;;;19.80;99.90;;;;;;5044079;28;20168;-68
2023/08/04 07:01:02;;;;;;;3.83;1.63;;;20.00;99.90;;;;;;5046101;28;20294;-68
2023/08/04 07:03:28;;;;;;;2.60;1.33;;;20.10;99.90;;;;;;5046111;28;20167;-69
2023/08/04 07:05:53;;;;;;;2.43;1.60;;;20.20;99.90;;;;;;5043429;28;20181;-66
2023/08/04 07:08:19;;;;;;;6.13;2.33;;;19.80;99.90;;;;;;5045082;28;20427;-71
2023/08/04 07:10:45;;;;;;;7.10;2.10;;;19.80;99.90;;;;;;5044742;28;20206;-71
2023/08/04 07:13:10;;;;;;;2.67;1.80;;;19.40;99.90;;;;;;5046716;28;20163;-69
2023/08/04 07:15:36;;;;;;;2.17;1.53;;;19.40;99.90;;;;;;5043583;28;20258;-70
2023/08/04 07:18:02;;;;;;;5.73;1.77;;;19.20;99.90;;;;;;5041053;28;20646;-71
2023/08/04 07:20:28;;;;;;;2.53;1.30;;;19.00;99.90;;;;;;5043732;28;20677;-70
2023/08/04 07:22:54;;;;;;;2.73;1.47;;;19.00;99.90;;;;;;5049807;28;20512;-69
2023/08/04 07:25:20;;;;;;;2.40;1.53;;;19.30;99.90;;;;;;5044299;28;20163;-71
2023/08/04 07:27:45;;;;;;;3.30;1.30;;;19.30;99.90;;;;;;5044175;28;20412;-71
2023/08/04 07:30:13;;;;;;;2.80;1.07;;;19.60;99.90;;;;;;5046101;28;20206;-69
2023/08/04 07:32:39;;;;;;;2.17;1.10;;;20.10;99.90;;;;;;5045885;28;20155;-70
2023/08/04 07:35:04;;;;;;;2.10;1.30;;;20.30;99.90;;;;;;5044399;28;20393;-69
2023/08/04 07:37:30;;;;;;;3.37;1.47;;;20.80;99.90;;;;;;5042049;28;20190;-70
2023/08/04 07:39:55;;;;;;;2.23;1.20;;;21.20;99.90;;;;;;5045980;28;20637;-70
2023/08/04 07:42:21;;;;;;;2.07;1.10;;;21.30;99.90;;;;;;5044730;28;20569;-69
2023/08/04 07:44:46;;;;;;;3.03;1.33;;;21.10;99.90;;;;;;5045632;28;20209;-71
2023/08/04 07:47:12;;;;;;;2.40;1.20;;;21.20;99.90;;;;;;5043430;28;20175;-70
2023/08/04 07:49:37;;;;;;;1.80;1.00;;;21.20;99.90;;;;;;5044829;28;20229;-71
2023/08/04 07:52:03;;;;;;;2.83;1.30;;;21.30;99.90;;;;;;5045706;28;20191;-69
2023/08/04 07:54:29;;;;;;;2.20;1.00;;;21.40;99.90;;;;;;5046073;28;20180;-71
2023/08/04 07:56:54;;;;;;;3.57;1.67;;;21.30;99.90;;;;;;5044883;28;20236;-70
2023/08/04 07:59:20;;;;;;;4.53;1.30;;;21.30;99.90;;;;;;5045443;28;20517;-71
2023/08/04 08:01:46;;;;;;;1.80;1.00;;;21.40;99.90;;;;;;5043064;28;20693;-71
2023/08/04 08:04:12;;;;;;;1.70;1.27;;;21.60;99.90;;;;;;5046869;28;20645;-71
2023/08/04 08:06:38;;;;;;;3.10;1.57;;;21.70;99.90;;;;;;5043726;28;20167;-71
2023/08/04 08:09:04;;;;;;;5.97;1.70;;;21.60;99.90;;;;;;5046052;28;20167;-70
2023/08/04 08:11:29;;;;;;;2.60;1.60;;;21.50;99.90;;;;;;5049504;28;20487;-69
2023/08/04 08:13:55;;;;;;;5.37;2.27;;;20.90;99.90;;;;;;5044513;28;20194;-68
2023/08/04 08:16:21;;;;;;;3.50;1.80;;;20.90;99.90;;;;;;5042514;28;20638;-69
2023/08/04 08:18:46;;;;;;;3.33;1.90;;;20.90;99.90;;;;;;5044335;28;20173;-68
2023/08/04 08:21:13;;;;;;;2.27;1.27;;;21.10;99.90;;;;;;5043538;28;20609;-66
2023/08/04 08:23:38;;;;;;;3.23;1.50;;;21.20;99.90;;;;;;5044890;28;20163;-68
2023/08/04 08:26:04;;;;;;;5.23;1.87;;;21.10;99.90;;;;;;5045497;28;20939;-68
2023/08/04 08:28:30;;;;;;;1.90;1.23;;;21.20;99.90;;;;;;5043051;28;20177;-68
2023/08/04 08:30:56;;;;;;;5.07;1.50;;;21.60;99.90;;;;;;5042244;28;20446;-69
2023/08/04 08:33:22;;;;;;;3.00;1.37;;;21.30;99.90;;;;;;5042607;28;20421;-67
2023/08/04 08:35:47;;;;;;;3.93;1.50;;;21.30;99.90;;;;;;5044623;28;20642;-66
2023/08/04 08:38:13;;;;;;;2.17;1.20;;;21.50;99.90;;;;;;5044501;28;20166;-67
2023/08/04 08:40:38;;;;;;;3.80;1.50;;;21.60;99.90;;;;;;5043100;28;20191;-67
2023/08/04 08:43:04;;;;;;;1.60;1.30;;;21.70;99.90;;;;;;5044515;28;20177;-68
2023/08/04 08:45:33;;;;;;;3.50;1.83;;;21.90;99.90;;;;;;5044343;28;20224;-68
2023/08/04 08:47:59;;;;;;;5.30;2.00;;;22.00;99.90;;;;;;5044441;28;20492;-69
2023/08/04 08:50:26;;;;;;;2.73;1.60;;;21.80;99.90;;;;;;5042662;28;20462;-68
2023/08/04 08:53:09;;;;;;;5.70;2.17;;;21.30;99.90;;;;;;5045445;28;20170;-67
2023/08/04 08:55:36;;;;;;;2.90;1.90;;;21.40;99.90;;;;;;5042414;28;20892;-68
2023/08/04 08:58:02;;;;;;;4.37;2.00;;;21.70;99.90;;;;;;5044356;28;20410;-67
2023/08/04 09:00:28;;;;;;;3.10;1.53;;;22.00;99.90;;;;;;5043602;28;20421;-68
2023/08/04 09:02:54;;;;;;;4.77;1.47;;;21.80;99.90;;;;;;5041823;28;20921;-68
2023/08/04 09:05:21;;;;;;;2.63;1.70;;;21.30;99.90;;;;;;5042282;28;20429;-67
2023/08/04 09:07:48;;;;;;;3.80;1.70;;;21.30;99.90;;;;;;5042611;28;20402;-68
2023/08/04 09:10:14;;;;;;;4.17;1.70;;;21.50;99.90;;;;;;5043819;28;20453;-67
2023/08/04 09:12:39;;;;;;;1.70;1.30;;;21.40;99.90;;;;;;5044499;28;20453;-68
2023/08/04 09:15:05;;;;;;;2.23;1.57;;;21.30;99.90;;;;;;5043040;28;20247;-70
2023/08/04 09:17:33;;;;;;;4.03;2.00;;;21.10;99.90;;;;;;5044448;28;20163;-68
2023/08/04 09:20:00;;;;;;;3.20;1.50;;;21.40;99.90;;;;;;5041724;28;20402;-67
2023/08/04 09:22:26;;;;;;;3.10;1.33;;;21.80;99.90;;;;;;5042606;28;20414;-69
2023/08/04 09:24:57;;;;;;;3.57;1.63;;;22.10;99.90;;;;;;5042883;28;20420;-69
2023/08/04 09:27:32;;;;;;;5.57;1.90;;;22.50;99.90;;;;;;5044023;28;20431;-69
2023/08/04 09:29:59;;;;;;;2.80;1.60;;;21.90;99.90;;;;;;5042316;28;20406;-69
2023/08/04 09:32:25;;;;;;;2.53;1.77;;;21.60;99.90;;;;;;5041410;28;20503;-69
2023/08/04 09:35:04;;;;;;;1.93;1.20;;;21.90;99.90;;;;;;5044998;28;20414;-69
2023/08/04 09:37:34;;;;;;;3.07;1.50;;;22.20;99.90;;;;;;5041917;28;20769;-68
2023/08/04 09:40:03;;;;;;;4.23;1.67;;;22.30;99.90;;;;;;5043800;28;20406;-68
2023/08/04 09:42:29;;;;;;;1.60;1.30;;;21.90;99.90;;;;;;5041472;28;20505;-67
2023/08/04 09:44:55;;;;;;;3.00;1.40;;;22.40;99.90;;;;;;5043624;28;20463;-67
2023/08/04 09:47:26;;;;;;;4.27;1.70;;;22.90;99.90;;;;;;5041379;28;20777;-68
2023/08/04 09:49:52;;;;;;;6.00;1.70;;;23.30;99.90;;;;;;5044214;28;20163;-67
2023/08/04 09:52:27;;;;;;;3.20;1.70;;;22.90;99.90;;;;;;5042009;28;20442;-67
2023/08/04 09:54:55;;;;;;;2.50;1.07;;;22.80;99.90;;;;;;5042952;28;20416;-67
2023/08/04 09:57:22;;;;;;;4.80;1.30;;;23.00;99.90;;;;;;5045787;28;20500;-67
2023/08/04 09:59:49;;;;;;;3.93;1.60;;;23.10;99.90;;;;;;5045190;28;20406;-68
2023/08/04 10:02:15;;;;;;;2.70;1.40;;;22.60;99.90;;;;;;5046083;28;20798;-69
2023/08/04 10:04:41;;;;;;;4.50;2.00;;;22.30;99.90;;;;;;5046869;28;20441;-69
2023/08/04 10:07:09;;;;;;;1.80;1.23;;;22.60;99.90;;;;;;5048508;28;20931;-69
2023/08/04 10:09:35;;;;;;;3.40;1.57;;;22.30;99.90;;;;;;5047640;28;20960;-70
2023/08/04 10:12:02;;;;;;;1.43;1.20;;;21.70;99.90;;;;;;5046436;28;20465;-71
2023/08/04 10:14:27;;;;;;;1.47;1.17;;;21.40;99.90;;;;;;5047571;28;20926;-68
2023/08/04 10:16:54;;;;;;;2.90;1.30;;;21.40;99.90;;;;;;5045006;28;20406;-68
2023/08/04 10:19:23;;;;;;;2.47;1.30;;;21.10;99.90;;;;;;5047594;28;20175;-69
2023/08/04 10:21:49;;;;;;;2.30;1.10;;;21.30;99.90;;;;;;5044148;28;20429;-68
2023/08/04 10:24:19;;;;;;;2.30;1.40;;;21.40;99.90;;;;;;5047761;28;20408;-69
2023/08/04 10:26:52;;;;;;;4.27;1.50;;;21.00;99.90;;;;;;5046093;28;20422;-69
2023/08/04 10:29:19;;;;;;;3.00;1.13;;;20.90;99.90;;;;;;5045043;28;20406;-69
2023/08/04 10:31:56;;;;;;;2.60;1.40;;;21.10;99.90;;;;;;5048231;28;20502;-69
2023/08/04 10:34:27;;;;;;;3.33;1.10;;;21.30;99.90;;;;;;5047247;28;20406;-68
2023/08/04 10:37:11;;;;;;;2.80;1.47;;;21.30;99.90;;;;;;5045875;28;20405;-69
2023/08/04 10:39:39;;;;;;;2.00;1.30;;;21.60;99.90;;;;;;5044899;28;20393;-68
2023/08/04 10:42:29;;;;;;;1.73;1.07;;;21.70;99.90;;;;;;5046628;28;20464;-69
2023/08/04 10:45:08;;;;;;;1.97;1.00;;;21.90;99.90;;;;;;5041054;28;20432;-68
2023/08/04 10:47:33;;;;;;;2.73;1.30;;;22.00;99.90;;;;;;5044819;28;20780;-69
2023/08/04 10:50:00;;;;;;;2.93;1.67;;;22.10;99.90;;;;;;5047393;28;20420;-69
2023/08/04 10:52:26;;;;;;;5.10;1.60;;;21.90;99.90;;;;;;5046660;28;20213;-68
2023/08/04 10:54:53;;;;;;;3.83;1.43;;;22.00;99.90;;;;;;5046535;28;20405;-68
2023/08/04 10:57:21;;;;;;;2.07;1.27;;;21.90;99.90;;;;;;5042360;28;20939;-68
2023/08/04 10:59:47;;;;;;;2.40;1.80;;;21.80;99.90;;;;;;5044608;28;20414;-68
2023/08/04 11:02:16;;;;;;;3.83;1.40;;;21.60;99.90;;;;;;5044468;28;20427;-69
2023/08/04 11:04:42;;;;;;;2.23;0.90;;;21.70;99.90;;;;;;5044413;28;20452;-68
2023/08/04 11:07:07;;;;;;;1.40;1.17;;;21.50;99.90;;;;;;5044363;28;20442;-68
2023/08/04 11:09:33;;;;;;;2.80;1.07;;;21.70;99.90;;;;;;5045389;28;20180;-68
2023/08/04 11:12:00;;;;;;;1.53;1.10;;;21.80;99.90;;;;;;5043969;28;20297;-68
2023/08/04 11:14:25;;;;;;;1.87;1.27;;;21.80;99.90;;;;;;5046679;28;20231;-68
2023/08/04 11:16:51;;;;;;;2.90;1.20;;;21.70;99.90;;;;;;5043581;28;20982;-69
2023/08/04 11:19:20;;;;;;;3.03;1.50;;;21.60;99.90;;;;;;5044236;28;20170;-68
2023/08/04 11:21:46;;;;;;;3.97;1.50;;;21.80;99.90;;;;;;5047688;28;20193;-68
2023/08/04 11:24:11;;;;;;;1.83;1.40;;;22.00;99.90;;;;;;5043747;28;20406;-68
2023/08/04 11:26:37;;;;;;;2.30;1.50;;;22.40;99.90;;;;;;5047875;28;20215;-68
2023/08/04 11:29:04;;;;;;;3.37;1.33;;;22.40;99.90;;;;;;5044695;28;20250;-68
2023/08/04 11:31:32;;;;;;;4.60;1.33;;;22.40;99.90;;;;;;5043349;28;20831;-68
2023/08/04 11:33:58;;;;;;;3.00;1.97;;;22.30;99.90;;;;;;5043829;28;20489;-68
2023/08/04 11:36:24;;;;;;;2.10;1.70;;;22.30;99.90;;;;;;5044960;28;20502;-69
2023/08/04 11:38:49;;;;;;;2.80;1.30;;;22.50;99.90;;;;;;5046104;28;20193;-69
2023/08/04 11:41:16;;;;;;;2.73;1.30;;;22.60;99.90;;;;;;5044227;28;20214;-70
2023/08/04 11:43:42;;;;;;;2.50;1.33;;;22.50;99.90;;;;;;5043014;28;20258;-70
2023/08/04 11:46:08;;;;;;;1.50;1.27;;;22.30;99.90;;;;;;5044186;28;20406;-69
2023/08/04 11:48:35;;;;;;;2.53;1.50;;;22.20;99.90;;;;;;5046674;28;20823;-69
2023/08/04 11:51:01;;;;;;;4.40;1.50;;;22.00;99.90;;;;;;5043465;28;20203;-69
2023/08/04 11:53:27;;;;;;;2.17;1.60;;;21.70;99.90;;;;;;5043654;28;20401;-69
2023/08/04 11:55:54;;;;;;;3.63;1.40;;;21.60;99.90;;;;;;5045534;28;20171;-70
2023/08/04 11:58:29;;;;;;;3.37;1.53;;;21.40;99.90;;;;;;5046242;28;20171;-69
2023/08/04 12:00:54;;;;;;;3.40;1.40;;;21.40;99.90;;;;;;5043477;28;20418;-69
2023/08/04 12:03:20;;;;;;;1.87;1.30;;;21.30;99.90;;;;;;5045134;28;20769;-69
2023/08/04 12:05:45;;;;;;;1.83;1.33;;;21.20;99.90;;;;;;5044869;28;20553;-69
2023/08/04 12:08:13;;;;;;;2.20;1.20;;;21.20;99.90;;;;;;5048326;28;20539;-69
2023/08/04 12:10:39;;;;;;;4.20;1.50;;;21.20;99.90;;;;;;5046896;28;20206;-68
2023/08/04 12:13:05;;;;;;;2.10;1.30;;;21.00;99.90;;;;;;5048286;28;20401;-69
2023/08/04 12:15:51;;;;;;;2.63;1.30;;;20.90;99.90;;;;;;5046351;28;20402;-72
2023/08/04 12:18:24;;;;;;;4.00;1.60;;;20.80;99.90;;;;;;5044731;28;20904;-73
2023/08/04 12:20:50;;;;;;;1.73;1.17;;;20.90;99.90;;;;;;5042380;28;20430;-69
2023/08/04 12:23:16;;;;;;;1.80;1.23;;;20.80;99.90;;;;;;5046397;28;20780;-69
2023/08/04 12:25:41;;;;;;;1.63;1.10;;;20.60;99.90;;;;;;5044276;28;20175;-69
2023/08/04 12:28:07;;;;;;;3.67;1.57;;;20.40;99.90;;;;;;5045550;28;20175;-70
2023/08/04 12:30:32;;;;;;;3.60;1.27;;;20.80;99.90;;;;;;5044040;28;20186;-69
2023/08/04 12:32:58;;;;;;;3.00;0.90;;;21.00;99.90;;;;;;5040567;28;20179;-72
2023/08/04 12:35:23;;;;;;;2.67;1.20;;;21.20;99.90;;;;;;5044573;28;20171;-72
2023/08/04 12:37:49;;;;;;;2.40;1.50;;;21.50;99.90;;;;;;5045130;28;20628;-70
2023/08/04 12:40:14;;;;;;;2.13;1.37;;;22.10;99.90;;;;;;5042518;28;20205;-70
2023/08/04 12:42:40;;;;;;;2.07;1.37;;;22.60;99.90;;;;;;5043486;28;20210;-70
2023/08/04 12:45:06;;;;;;;1.73;1.07;;;22.40;99.90;;;;;;5042659;28;20206;-66